createdAt,value
2019-03-26T00:01:22.198Z,100933.81
2019-03-26T00:06:26.920Z,100950.36
2019-03-26T00:11:31.648Z,100950.36
2019-03-26T00:16:36.206Z,100957.69
2019-03-26T00:21:40.861Z,100962.48
2019-03-26T00:26:45.401Z,100965.77
2019-03-26T00:31:50.113Z,100969.91
2019-03-26T00:36:54.666Z,100967.86
2019-03-26T00:41:59.411Z,100976.11
2019-03-26T00:47:03.986Z,100984.95
2019-03-26T00:52:08.618Z,100987.94
2019-03-26T00:57:13.269Z,100990.70
2019-03-26T01:02:17.835Z,100986.53
2019-03-26T01:07:22.379Z,100997.30
2019-03-26T01:12:26.923Z,100997.98
2019-03-26T01:17:31.570Z,100997.98
2019-03-26T01:22:36.154Z,100998.53
2019-03-26T01:27:40.749Z,100995.33
2019-03-26T01:32:45.331Z,100988.38
2019-03-26T01:37:49.893Z,100977.26
2019-03-26T01:42:54.636Z,100995.91
2019-03-26T01:47:59.274Z,100996.48
2019-03-26T01:53:03.936Z,100995.30
2019-03-26T01:58:08.638Z,100995.11
2019-03-26T02:03:13.274Z,100995.11
2019-03-26T02:08:17.934Z,100997.58
2019-03-26T02:13:22.507Z,101010.03
2019-03-26T02:18:27.155Z,101009.23
2019-03-26T02:23:31.745Z,101004.81
2019-03-26T02:28:36.309Z,101014.32
2019-03-26T02:33:40.957Z,101016.30
2019-03-26T02:38:45.528Z,101017.75
2019-03-26T02:43:50.186Z,101009.77
2019-03-26T02:48:54.845Z,101023.37
2019-03-26T02:53:59.430Z,101024.81
2019-03-26T02:59:04.112Z,101024.81
2019-03-26T03:04:08.796Z,101024.10
2019-03-26T03:09:13.394Z,101024.20
2019-03-26T03:14:18.038Z,101024.20
2019-03-26T03:19:22.683Z,101019.93
2019-03-26T03:24:27.289Z,101025.41
2019-03-26T03:29:32.088Z,101028.58
2019-03-26T03:34:36.758Z,101038.47
2019-03-26T03:39:41.398Z,101036.83
2019-03-26T03:44:46.104Z,101040.45
2019-03-26T03:49:51.085Z,101046.78
2019-03-26T03:54:55.940Z,101041.97
2019-03-26T04:00:02.812Z,101040.30
2019-03-26T04:05:08.082Z,101047.59
2019-03-26T04:10:12.753Z,101058.36
2019-03-26T04:15:17.366Z,101062.96
2019-03-26T04:20:22.037Z,101061.67
2019-03-26T04:25:26.721Z,101050.09
2019-03-26T04:30:32.664Z,101067.23
2019-03-26T04:35:37.242Z,101064.55
2019-03-26T04:40:41.912Z,101064.55
2019-03-26T04:45:46.478Z,101073.87
2019-03-26T04:50:51.130Z,101068.34
2019-03-26T04:55:55.780Z,101074.67
2019-03-26T05:01:00.526Z,101074.67
2019-03-26T05:06:05.081Z,101050.28
2019-03-26T05:11:09.640Z,101050.28
2019-03-26T05:16:14.207Z,101074.77
2019-03-26T05:21:18.775Z,101079.72
2019-03-26T05:26:23.338Z,101079.39
2019-03-26T05:31:27.896Z,101095.61
2019-03-26T05:36:32.445Z,101095.61
2019-03-26T05:41:37.016Z,101109.70
2019-03-26T05:46:41.671Z,101099.48
2019-03-26T05:51:46.330Z,101096.02
2019-03-26T05:56:50.891Z,101096.97
2019-03-26T06:01:55.457Z,101096.16
2019-03-26T06:07:05.153Z,101093.56
2019-03-26T06:12:06.395Z,101088.75
2019-03-26T06:17:11.045Z,101075.31
2019-03-26T06:22:15.611Z,101088.75
2019-03-26T06:27:20.171Z,101086.53
2019-03-26T06:32:24.900Z,101084.77
2019-03-26T06:37:29.511Z,101093.79
2019-03-26T06:42:34.060Z,101094.27
2019-03-26T06:47:38.777Z,101107.32
2019-03-26T06:52:43.330Z,101112.78
2019-03-26T06:57:48.062Z,101112.78
2019-03-26T07:02:52.629Z,101127.56
2019-03-26T07:07:57.265Z,101133.00
2019-03-26T07:13:01.834Z,101133.00
2019-03-26T07:18:06.557Z,101139.41
2019-03-26T07:23:11.191Z,101139.41
2019-03-26T07:28:15.832Z,101147.09
2019-03-26T07:33:20.472Z,101153.86
2019-03-26T07:38:25.135Z,101163.73
2019-03-26T07:43:29.766Z,101161.61
2019-03-26T07:48:34.326Z,101161.61
2019-03-26T07:53:38.939Z,101186.54
2019-03-26T07:58:43.575Z,101189.38
2019-03-26T08:03:48.232Z,101201.45
2019-03-26T08:08:52.854Z,101205.77
2019-03-26T08:13:57.469Z,101219.88
2019-03-26T08:19:02.169Z,101188.91
2019-03-26T08:24:06.873Z,101181.78
2019-03-26T08:29:11.441Z,101181.78
2019-03-26T08:34:16.078Z,101195.79
2019-03-26T08:39:20.630Z,101190.89
2019-03-26T08:44:25.174Z,101169.00
2019-03-26T08:49:30.907Z,101180.08
2019-03-26T08:54:35.751Z,101189.58
2019-03-26T08:59:40.458Z,101191.58
2019-03-26T09:04:45.011Z,101187.92
2019-03-26T09:09:49.562Z,101174.85
2019-03-26T09:14:54.738Z,101174.85
2019-03-26T09:19:59.300Z,101181.52
2019-03-26T09:25:04.775Z,101191.12
2019-03-26T09:30:10.739Z,101191.12
2019-03-26T09:35:17.334Z,101182.72
2019-03-26T09:40:21.938Z,101176.67
2019-03-26T09:45:26.506Z,101160.31
2019-03-26T09:50:35.494Z,101162.28
2019-03-26T09:55:40.052Z,101159.73
2019-03-26T10:00:44.922Z,101126.84
2019-03-26T10:05:49.520Z,101148.12
2019-03-26T10:10:54.162Z,101129.78
2019-03-26T10:15:58.738Z,101109.84
2019-03-26T10:21:03.379Z,101109.84
2019-03-26T10:26:07.927Z,101119.89
2019-03-26T10:31:12.561Z,101112.45
2019-03-26T10:36:17.182Z,101110.32
2019-03-26T10:41:21.740Z,101108.64
2019-03-26T10:46:26.285Z,101108.64
2019-03-26T10:51:30.828Z,101114.19
2019-03-26T10:56:35.464Z,101103.92
2019-03-26T11:01:40.037Z,101103.92
2019-03-26T11:06:44.702Z,101089.44
2019-03-26T11:11:49.325Z,101092.38
2019-03-26T11:16:54.049Z,101085.74
2019-03-26T11:21:58.646Z,101088.66
2019-03-26T11:27:03.271Z,101091.43
2019-03-26T11:32:07.975Z,101096.86
2019-03-26T11:37:12.676Z,101081.22
2019-03-26T11:42:17.383Z,101096.08
2019-03-26T11:47:21.934Z,101106.91
2019-03-26T11:52:26.488Z,101104.92
2019-03-26T11:57:31.033Z,101077.50
2019-03-26T12:02:35.856Z,101081.94
2019-03-26T12:07:42.783Z,101081.94
2019-03-26T12:12:46.733Z,101071.88
2019-03-26T12:17:51.338Z,101071.88
2019-03-26T12:22:55.896Z,101054.36
2019-03-26T12:28:00.431Z,101041.38
2019-03-26T12:33:05.532Z,101043.67
2019-03-26T12:38:17.918Z,101047.69
2019-03-26T12:43:22.643Z,101042.27
2019-03-26T12:48:27.331Z,101059.96
2019-03-26T12:53:31.878Z,101067.04
2019-03-26T12:58:36.833Z,101042.85
2019-03-26T13:03:41.464Z,101042.85
2019-03-26T13:08:46.067Z,101032.59
2019-03-26T13:13:50.886Z,101014.98
2019-03-26T13:18:55.421Z,101005.38
2019-03-26T13:23:59.964Z,101027.09
2019-03-26T13:29:04.588Z,101027.09
2019-03-26T13:34:09.232Z,101015.95
2019-03-26T13:39:13.790Z,100999.14
2019-03-26T13:44:18.331Z,101007.34
2019-03-26T13:49:22.992Z,101009.36
2019-03-26T13:54:27.517Z,100990.66
2019-03-26T13:59:32.059Z,101009.80
2019-03-26T14:04:36.621Z,100998.72
2019-03-26T14:09:41.241Z,101003.80
2019-03-26T14:14:45.777Z,101014.88
2019-03-26T14:19:50.314Z,101006.52
2019-03-26T14:24:55.136Z,101003.11
2019-03-26T14:29:59.688Z,100998.65
2019-03-26T14:35:04.674Z,100994.28
2019-03-26T14:40:10.193Z,100994.28
2019-03-26T14:45:15.029Z,101007.34
2019-03-26T14:50:20.009Z,101001.34
2019-03-26T14:55:24.638Z,100997.98
2019-03-26T15:00:29.602Z,101011.72
2019-03-26T15:05:34.533Z,101017.39
2019-03-26T15:10:39.190Z,101005.14
2019-03-26T15:15:43.742Z,101025.94
2019-03-26T15:20:48.315Z,101006.67
2019-03-26T15:25:52.875Z,101013.36
2019-03-26T15:30:57.470Z,101015.42
2019-03-26T15:36:02.386Z,101019.37
2019-03-26T15:41:07.040Z,101025.16
2019-03-26T15:46:11.695Z,101025.88
2019-03-26T15:51:16.396Z,101031.11
2019-03-26T15:56:21.030Z,101029.67
2019-03-26T16:01:25.660Z,101034.97
2019-03-26T16:06:30.255Z,101037.59
2019-03-26T16:11:36.255Z,101037.12
2019-03-26T16:16:41.195Z,101047.69
2019-03-26T16:21:46.044Z,101042.55
2019-03-26T16:26:50.751Z,101046.59
2019-03-26T16:31:55.324Z,101039.29
2019-03-26T16:37:00.215Z,101039.29
2019-03-26T16:42:05.033Z,101034.30
2019-03-26T16:47:09.604Z,101036.89
2019-03-26T16:52:14.346Z,101042.21
2019-03-26T16:57:18.965Z,101044.75
2019-03-26T17:02:23.666Z,101046.30
2019-03-26T17:07:28.416Z,101055.66
2019-03-26T17:12:33.018Z,101060.86
2019-03-26T17:17:37.659Z,101060.86
2019-03-26T17:22:42.242Z,101073.25
2019-03-26T17:27:46.963Z,101073.25
2019-03-26T17:32:51.728Z,101059.26
2019-03-26T17:37:59.978Z,101065.80
2019-03-26T17:43:02.621Z,101056.03
2019-03-26T17:48:07.273Z,101070.11
2019-03-26T17:53:11.836Z,101081.81
2019-03-26T17:58:16.446Z,101087.09
2019-03-26T18:03:26.561Z,101087.09
2019-03-26T18:08:27.424Z,101088.39
2019-03-26T18:13:32.046Z,101088.39
2019-03-26T18:18:36.589Z,101095.23
2019-03-26T18:23:42.457Z,101097.23
2019-03-26T18:28:47.093Z,101109.33
2019-03-26T18:33:51.664Z,101108.30
2019-03-26T18:38:56.274Z,101107.55
2019-03-26T18:44:00.959Z,101112.05
2019-03-26T18:49:05.622Z,101112.05
2019-03-26T18:54:10.256Z,101115.42
2019-03-26T18:59:14.935Z,101123.95
2019-03-26T19:04:19.598Z,101132.52
2019-03-26T19:09:24.255Z,101130.70
2019-03-26T19:14:28.900Z,101138.20
2019-03-26T19:19:33.438Z,101131.46
2019-03-26T19:24:38.075Z,101153.92
2019-03-26T19:29:42.719Z,101168.16
2019-03-26T19:34:47.293Z,101147.30
2019-03-26T19:39:51.934Z,101173.92
2019-03-26T19:44:56.648Z,101163.37
2019-03-26T19:50:01.314Z,101161.36
2019-03-26T19:55:07.509Z,101161.36
2019-03-26T20:00:14.163Z,101159.95
2019-03-26T20:05:18.810Z,101166.25
2019-03-26T20:10:23.756Z,101189.48
2019-03-26T20:15:28.460Z,101195.63
2019-03-26T20:20:33.059Z,101184.48
2019-03-26T20:25:37.764Z,101193.44
2019-03-26T20:30:42.321Z,101211.69
2019-03-26T20:35:46.890Z,101216.96
2019-03-26T20:40:51.430Z,101218.66
2019-03-26T20:45:56.083Z,101230.64
2019-03-26T20:51:00.659Z,101226.94
2019-03-26T20:56:05.278Z,101231.81
2019-03-26T21:01:09.823Z,101236.66
2019-03-26T21:06:14.380Z,101246.28
2019-03-26T21:11:18.931Z,101246.14
2019-03-26T21:16:23.517Z,101245.52
2019-03-26T21:21:28.301Z,101245.62
2019-03-26T21:26:33.083Z,101246.38
2019-03-26T21:31:37.809Z,101253.50
2019-03-26T21:36:42.504Z,101260.39
2019-03-26T21:41:47.145Z,101257.02
2019-03-26T21:46:51.754Z,101254.86
2019-03-26T21:51:56.504Z,101261.21
2019-03-26T21:57:01.126Z,101258.22
2019-03-26T22:02:06.076Z,101259.63
2019-03-26T22:07:10.911Z,101269.45
2019-03-26T22:12:15.632Z,101274.06
2019-03-26T22:17:20.258Z,101274.06
2019-03-26T22:22:24.905Z,101279.22
2019-03-26T22:27:29.668Z,101285.81
2019-03-26T22:32:34.296Z,101286.38
2019-03-26T22:37:39.069Z,101286.38
2019-03-26T22:42:43.709Z,101313.32
2019-03-26T22:47:48.477Z,101308.08
2019-03-26T22:52:54.213Z,101314.52
2019-03-26T22:57:58.961Z,101318.47
2019-03-26T23:03:03.993Z,101325.20
2019-03-26T23:08:08.810Z,101328.47
2019-03-26T23:13:13.480Z,101333.28
2019-03-26T23:18:18.285Z,101333.77
2019-03-26T23:23:22.968Z,101335.98
2019-03-26T23:28:27.577Z,101335.98
2019-03-26T23:33:32.369Z,101335.20
2019-03-26T23:38:37.050Z,101338.37
2019-03-26T23:43:41.746Z,101349.54
2019-03-26T23:48:46.539Z,101349.54
2019-03-26T23:53:51.291Z,101349.92
2019-03-26T23:58:55.986Z,101352.14
